createdAt,value
2019-05-09T00:00:55.863Z,0
2019-05-09T00:02:08.136Z,0
2019-05-09T00:03:18.773Z,0
2019-05-09T00:04:30.419Z,0
2019-05-09T00:05:43.833Z,0
2019-05-09T00:06:54.471Z,0
2019-05-09T00:08:05.946Z,0
2019-05-09T00:09:16.347Z,0
2019-05-09T00:10:46.618Z,0
2019-05-09T00:11:57.930Z,0
2019-05-09T00:13:10.532Z,0
2019-05-09T00:14:23.691Z,0
2019-05-09T00:15:35.744Z,0
2019-05-09T00:16:46.446Z,0
2019-05-09T00:17:58.161Z,0
2019-05-09T00:19:10.411Z,0
2019-05-09T00:20:21.376Z,0
2019-05-09T00:21:33.240Z,0
2019-05-09T00:22:43.613Z,0
2019-05-09T00:23:54.164Z,0
2019-05-09T00:25:05.740Z,0
2019-05-09T00:26:18.141Z,0
2019-05-09T00:27:30.000Z,0
2019-05-09T00:28:44.078Z,0
2019-05-09T00:29:55.627Z,0
2019-05-09T00:31:08.181Z,0
2019-05-09T00:32:18.564Z,0
2019-05-09T00:33:30.797Z,0
2019-05-09T00:34:44.144Z,0
2019-05-09T00:35:55.855Z,0
2019-05-09T00:37:07.993Z,0
2019-05-09T00:38:18.227Z,0
2019-05-09T00:39:28.505Z,0
2019-05-09T00:40:52.862Z,0
2019-05-09T00:42:09.116Z,0
2019-05-09T00:43:21.183Z,0
2019-05-09T00:44:33.675Z,0
2019-05-09T00:45:46.262Z,0
2019-05-09T00:46:58.411Z,0
2019-05-09T00:48:10.691Z,0
2019-05-09T00:49:23.516Z,0
2019-05-09T00:50:38.905Z,0
2019-05-09T00:51:51.448Z,0
2019-05-09T00:53:03.095Z,0
2019-05-09T00:54:15.865Z,0
2019-05-09T00:55:26.407Z,0
2019-05-09T00:56:38.014Z,0
2019-05-09T00:57:48.825Z,0
2019-05-09T00:59:01.198Z,0
2019-05-09T01:00:14.477Z,0
2019-05-09T01:01:26.515Z,0
2019-05-09T01:02:38.788Z,0
2019-05-09T01:03:53.224Z,0
2019-05-09T01:05:04.294Z,0
2019-05-09T01:06:15.915Z,0
2019-05-09T01:07:28.071Z,0
2019-05-09T01:08:38.591Z,0
2019-05-09T01:09:48.808Z,0
2019-05-09T01:11:18.069Z,0
2019-05-09T01:12:28.373Z,0
2019-05-09T01:13:39.111Z,0
2019-05-09T01:14:51.228Z,0
2019-05-09T01:16:04.068Z,0
2019-05-09T01:17:16.119Z,0
2019-05-09T01:18:28.479Z,0
2019-05-09T01:19:43.115Z,0
2019-05-09T01:20:55.556Z,0
2019-05-09T01:22:06.286Z,0
2019-05-09T01:23:18.951Z,0
2019-05-09T01:24:31.122Z,0
2019-05-09T01:25:43.588Z,0
2019-05-09T01:26:54.258Z,0
2019-05-09T01:28:05.797Z,0
2019-05-09T01:29:18.502Z,0
2019-05-09T01:30:33.559Z,0
2019-05-09T01:31:46.076Z,0
2019-05-09T01:32:58.738Z,0
2019-05-09T01:34:13.299Z,0
2019-05-09T01:35:25.699Z,0
2019-05-09T01:36:36.305Z,0
2019-05-09T01:37:48.271Z,0
2019-05-09T01:38:58.878Z,0
2019-05-09T01:40:13.222Z,0
2019-05-09T01:41:38.568Z,0
2019-05-09T01:42:50.549Z,0
2019-05-09T01:44:03.856Z,0
2019-05-09T01:45:16.531Z,0
2019-05-09T01:46:28.438Z,0
2019-05-09T01:47:39.011Z,0
2019-05-09T01:48:50.823Z,0
2019-05-09T01:50:03.590Z,0
2019-05-09T01:51:16.269Z,0
2019-05-09T01:52:28.043Z,0
2019-05-09T01:53:38.356Z,0
2019-05-09T01:54:50.778Z,0
2019-05-09T01:56:03.608Z,0
2019-05-09T01:57:16.259Z,0
2019-05-09T01:58:28.116Z,0
2019-05-09T01:59:38.961Z,0
2019-05-09T02:00:50.885Z,0
2019-05-09T02:02:08.055Z,0
2019-05-09T02:03:18.951Z,0
2019-05-09T02:04:33.389Z,0
2019-05-09T02:05:45.859Z,0
2019-05-09T02:06:58.739Z,0
2019-05-09T02:08:10.663Z,0
2019-05-09T02:09:23.382Z,0
2019-05-09T02:10:34.675Z,0
2019-05-09T02:11:50.582Z,0
2019-05-09T02:13:03.086Z,0
2019-05-09T02:14:13.585Z,0
2019-05-09T02:15:26.026Z,0
2019-05-09T02:16:38.555Z,0
2019-05-09T02:18:09.210Z,0
2019-05-09T02:19:21.444Z,0
2019-05-09T02:20:32.802Z,0
2019-05-09T02:21:43.833Z,0
2019-05-09T02:22:56.603Z,0
2019-05-09T02:24:08.058Z,0
2019-05-09T02:25:18.339Z,0
2019-05-09T02:26:28.928Z,0
2019-05-09T02:27:43.490Z,0
2019-05-09T02:28:56.250Z,0
2019-05-09T02:30:10.468Z,0
2019-05-09T02:31:26.796Z,0
2019-05-09T02:32:39.621Z,0
2019-05-09T02:33:56.624Z,0
2019-05-09T02:35:09.887Z,0
2019-05-09T02:36:21.474Z,0
2019-05-09T02:37:33.617Z,0
2019-05-09T02:38:48.627Z,0
2019-05-09T02:40:01.638Z,0
2019-05-09T02:41:13.398Z,0
2019-05-09T02:42:30.503Z,0
2019-05-09T02:43:43.656Z,0
2019-05-09T02:44:59.418Z,0
2019-05-09T02:46:12.346Z,0
2019-05-09T02:47:25.226Z,0
2019-05-09T02:48:38.574Z,0
2019-05-09T02:49:51.077Z,0
2019-05-09T02:51:04.919Z,0
2019-05-09T02:52:19.698Z,0
2019-05-09T02:53:33.611Z,0
2019-05-09T02:54:49.935Z,0
2019-05-09T02:56:03.260Z,0
2019-05-09T02:57:18.409Z,0
2019-05-09T02:58:30.692Z,0
2019-05-09T02:59:43.426Z,4
2019-05-09T03:00:59.627Z,4
2019-05-09T03:02:12.126Z,0
2019-05-09T03:03:24.736Z,4
2019-05-09T03:04:39.049Z,4
2019-05-09T03:05:51.225Z,4
2019-05-09T03:07:04.670Z,8
2019-05-09T03:08:19.140Z,8
2019-05-09T03:09:31.260Z,8
2019-05-09T03:10:42.897Z,8
2019-05-09T03:11:58.025Z,8
2019-05-09T03:13:31.642Z,12
2019-05-09T03:14:43.427Z,12
2019-05-09T03:15:58.561Z,16
2019-05-09T03:17:11.454Z,16
2019-05-09T03:18:23.256Z,16
2019-05-09T03:19:38.600Z,16
2019-05-09T03:20:51.701Z,20
2019-05-09T03:22:03.355Z,16
2019-05-09T03:23:19.064Z,16
2019-05-09T03:24:31.380Z,16
2019-05-09T03:25:43.537Z,16
2019-05-09T03:26:59.407Z,16
2019-05-09T03:28:12.212Z,16
2019-05-09T03:29:24.010Z,20
2019-05-09T03:30:39.630Z,20
2019-05-09T03:31:52.680Z,20
2019-05-09T03:33:04.563Z,24
2019-05-09T03:34:21.863Z,24
2019-05-09T03:35:48.159Z,28
2019-05-09T03:37:00.541Z,32
2019-05-09T03:38:13.197Z,36
2019-05-09T03:39:27.574Z,40
2019-05-09T03:40:40.159Z,44
2019-05-09T03:41:51.198Z,52
2019-05-09T03:43:02.280Z,64
2019-05-09T03:44:14.529Z,84
2019-05-09T03:45:27.319Z,104
2019-05-09T03:46:38.364Z,120
2019-05-09T03:47:50.287Z,136
2019-05-09T03:49:00.776Z,144
2019-05-09T03:50:13.025Z,168
2019-05-09T03:51:27.450Z,192
2019-05-09T03:52:39.752Z,208
2019-05-09T03:53:50.850Z,232
2019-05-09T03:55:02.759Z,260
2019-05-09T03:56:15.254Z,244
2019-05-09T03:57:28.139Z,212
2019-05-09T03:58:38.650Z,200
2019-05-09T03:59:50.590Z,208
2019-05-09T04:01:02.791Z,228
2019-05-09T04:02:17.788Z,268
2019-05-09T04:03:29.999Z,288
2019-05-09T04:04:40.834Z,276
2019-05-09T04:06:10.542Z,284
2019-05-09T04:07:21.170Z,296
2019-05-09T04:08:33.111Z,328
2019-05-09T04:09:47.974Z,360
2019-05-09T04:11:00.994Z,380
2019-05-09T04:12:12.384Z,412
2019-05-09T04:13:25.231Z,456
2019-05-09T04:14:37.529Z,464
2019-05-09T04:15:50.134Z,480
2019-05-09T04:17:02.410Z,476
2019-05-09T04:18:12.832Z,492
2019-05-09T04:19:27.331Z,496
2019-05-09T04:20:40.125Z,464
2019-05-09T04:21:50.877Z,400
2019-05-09T04:23:04.262Z,380
2019-05-09T04:24:17.615Z,336
2019-05-09T04:25:29.839Z,280
2019-05-09T04:26:40.571Z,312
2019-05-09T04:27:52.820Z,376
2019-05-09T04:29:05.002Z,520
2019-05-09T04:30:18.217Z,712
2019-05-09T04:31:30.507Z,872
2019-05-09T04:32:42.550Z,920
2019-05-09T04:33:54.563Z,872
2019-05-09T04:35:05.289Z,788
2019-05-09T04:36:18.145Z,716
2019-05-09T04:37:31.180Z,680
2019-05-09T04:38:44.721Z,708
2019-05-09T04:40:04.467Z,760
2019-05-09T04:41:28.554Z,820
2019-05-09T04:42:49.912Z,896
2019-05-09T04:44:04.938Z,972
2019-05-09T04:45:25.089Z,1000
2019-05-09T04:46:37.248Z,1024
2019-05-09T04:47:52.073Z,1068
2019-05-09T04:49:10.365Z,1096
2019-05-09T04:50:30.412Z,1104
2019-05-09T04:51:43.963Z,1168
2019-05-09T04:52:55.262Z,1268
2019-05-09T04:54:07.288Z,1384
2019-05-09T04:55:18.183Z,1472
2019-05-09T04:56:30.360Z,1556
2019-05-09T04:57:40.734Z,1604
2019-05-09T04:58:52.941Z,1636
2019-05-09T05:00:04.848Z,1472
2019-05-09T05:01:22.074Z,1216
2019-05-09T05:02:32.525Z,972
2019-05-09T05:03:44.752Z,820
2019-05-09T05:04:55.793Z,740
2019-05-09T05:06:07.654Z,656
2019-05-09T05:07:20.362Z,612
2019-05-09T05:08:30.972Z,620
2019-05-09T05:09:42.845Z,668
2019-05-09T05:10:55.010Z,720
2019-05-09T05:12:08.108Z,824
2019-05-09T05:13:34.507Z,1140
2019-05-09T05:14:47.563Z,1412
2019-05-09T05:16:00.216Z,1516
2019-05-09T05:17:18.068Z,1472
2019-05-09T05:18:30.850Z,1380
2019-05-09T05:19:43.402Z,1240
2019-05-09T05:20:57.499Z,1188
2019-05-09T05:22:09.813Z,1148
2019-05-09T05:23:20.714Z,1180
2019-05-09T05:24:32.607Z,1300
2019-05-09T05:25:43.117Z,1408
2019-05-09T05:26:57.853Z,1388
2019-05-09T05:28:08.631Z,1308
2019-05-09T05:29:20.208Z,1340
2019-05-09T05:30:30.900Z,1364
2019-05-09T05:31:43.592Z,1340
2019-05-09T05:32:57.839Z,1420
2019-05-09T05:34:08.344Z,1512
2019-05-09T05:35:20.347Z,1612
2019-05-09T05:36:32.717Z,1636
2019-05-09T05:37:43.647Z,1692
2019-05-09T05:38:55.581Z,1596
2019-05-09T05:40:07.754Z,1396
2019-05-09T05:41:18.360Z,1360
2019-05-09T05:42:30.748Z,1360
2019-05-09T05:43:52.758Z,1408
2019-05-09T05:45:03.242Z,1560
2019-05-09T05:46:15.331Z,1756
2019-05-09T05:47:29.631Z,1884
2019-05-09T05:48:40.786Z,1792
2019-05-09T05:49:53.581Z,1656
2019-05-09T05:51:07.903Z,1548
2019-05-09T05:52:18.558Z,1536
2019-05-09T05:53:29.984Z,1600
2019-05-09T05:54:42.600Z,1672
2019-05-09T05:55:57.991Z,1752
2019-05-09T05:57:10.713Z,1768
2019-05-09T05:58:22.886Z,1872
2019-05-09T05:59:41.109Z,2008
2019-05-09T06:00:52.969Z,1956
2019-05-09T06:02:05.484Z,2304
2019-05-09T06:03:17.747Z,2524
2019-05-09T06:04:30.062Z,2644
2019-05-09T06:05:40.819Z,2832
2019-05-09T06:06:53.036Z,2968
2019-05-09T06:08:05.008Z,3056
2019-05-09T06:09:18.502Z,3072
2019-05-09T06:10:31.442Z,2984
2019-05-09T06:11:43.290Z,2804
2019-05-09T06:12:57.496Z,2860
2019-05-09T06:14:18.377Z,2964
2019-05-09T06:15:31.220Z,3188
2019-05-09T06:16:42.679Z,3424
2019-05-09T06:17:53.355Z,3688
2019-05-09T06:19:08.700Z,3980
2019-05-09T06:20:20.249Z,4196
2019-05-09T06:21:30.868Z,4260
2019-05-09T06:22:43.053Z,4240
2019-05-09T06:23:55.600Z,4092
2019-05-09T06:25:09.526Z,3780
2019-05-09T06:26:21.349Z,3816
2019-05-09T06:27:32.367Z,3916
2019-05-09T06:28:44.890Z,3908
2019-05-09T06:29:58.112Z,3760
2019-05-09T06:31:10.015Z,3696
2019-05-09T06:32:21.373Z,3716
2019-05-09T06:33:33.508Z,3780
2019-05-09T06:34:52.590Z,3780
2019-05-09T06:36:03.859Z,3752
2019-05-09T06:37:18.309Z,3716
2019-05-09T06:38:30.784Z,3452
2019-05-09T06:39:42.758Z,3632
2019-05-09T06:40:54.909Z,4152
2019-05-09T06:42:08.249Z,4596
2019-05-09T06:43:20.809Z,4920
2019-05-09T06:44:33.101Z,5004
2019-05-09T06:45:51.029Z,5040
2019-05-09T06:47:03.484Z,5052
2019-05-09T06:48:18.056Z,4940
2019-05-09T06:49:37.623Z,4540
2019-05-09T06:50:48.398Z,4188
2019-05-09T06:52:00.535Z,3828
2019-05-09T06:53:12.904Z,3600
2019-05-09T06:54:24.511Z,3436
2019-05-09T06:55:38.486Z,3252
2019-05-09T06:56:50.037Z,3012
2019-05-09T06:58:03.071Z,3392
2019-05-09T06:59:14.950Z,3520
2019-05-09T07:00:28.300Z,3604
2019-05-09T07:01:40.042Z,3636
2019-05-09T07:02:52.668Z,3596
2019-05-09T07:04:06.120Z,3844
2019-05-09T07:05:17.920Z,4140
2019-05-09T07:06:30.476Z,4488
2019-05-09T07:07:42.265Z,4816
2019-05-09T07:08:54.876Z,5424
2019-05-09T07:10:07.547Z,5572
2019-05-09T07:11:19.155Z,5732
2019-05-09T07:12:29.911Z,5856
2019-05-09T07:13:40.677Z,5600
2019-05-09T07:14:53.415Z,5452
2019-05-09T07:16:05.700Z,5556
2019-05-09T07:17:18.285Z,5668
2019-05-09T07:18:30.132Z,6084
2019-05-09T07:19:43.651Z,6392
2019-05-09T07:20:57.634Z,6508
2019-05-09T07:22:09.029Z,6336
2019-05-09T07:23:20.231Z,6200
2019-05-09T07:24:33.359Z,6544
2019-05-09T07:25:47.629Z,7412
2019-05-09T07:26:58.405Z,8280
2019-05-09T07:28:10.156Z,8832
2019-05-09T07:29:22.667Z,9628
2019-05-09T07:30:33.935Z,10152
2019-05-09T07:31:45.432Z,10732
2019-05-09T07:32:57.929Z,11424
2019-05-09T07:34:08.627Z,12056
2019-05-09T07:35:21.037Z,12560
2019-05-09T07:36:32.647Z,12340
2019-05-09T07:37:45.199Z,11744
2019-05-09T07:38:58.216Z,11520
2019-05-09T07:40:10.836Z,11632
2019-05-09T07:41:22.647Z,11640
2019-05-09T07:42:33.331Z,11540
2019-05-09T07:43:47.755Z,11604
2019-05-09T07:45:01.702Z,11704
2019-05-09T07:46:13.841Z,12076
2019-05-09T07:47:25.537Z,12388
2019-05-09T07:48:38.041Z,12704
2019-05-09T07:49:50.658Z,13888
2019-05-09T07:51:04.539Z,14528
2019-05-09T07:52:18.539Z,14752
2019-05-09T07:53:30.808Z,13984
2019-05-09T07:54:42.564Z,13152
2019-05-09T07:55:54.661Z,12752
2019-05-09T07:57:08.322Z,13200
2019-05-09T07:58:23.565Z,13136
2019-05-09T07:59:36.055Z,13264
2019-05-09T08:00:48.255Z,13156
2019-05-09T08:02:00.702Z,13452
2019-05-09T08:03:18.079Z,13640
2019-05-09T08:04:31.266Z,13216
2019-05-09T08:05:43.432Z,12824
2019-05-09T08:06:57.649Z,12496
2019-05-09T08:08:10.325Z,11680
2019-05-09T08:09:21.205Z,11104
2019-05-09T08:10:38.511Z,9420
2019-05-09T08:11:50.795Z,9068
2019-05-09T08:13:03.296Z,9388
2019-05-09T08:14:20.067Z,9876
2019-05-09T08:15:32.997Z,9972
2019-05-09T08:16:47.289Z,9916
2019-05-09T08:17:58.967Z,10396
2019-05-09T08:19:10.080Z,11528
2019-05-09T08:20:22.420Z,12988
2019-05-09T08:21:34.873Z,14144
2019-05-09T08:23:04.682Z,15360
2019-05-09T08:24:18.271Z,15584
2019-05-09T08:25:30.286Z,14144
2019-05-09T08:26:42.030Z,12172
2019-05-09T08:27:53.139Z,11364
2019-05-09T08:29:05.648Z,12804
2019-05-09T08:30:20.333Z,14096
2019-05-09T08:31:32.808Z,15776
2019-05-09T08:32:45.088Z,17248
2019-05-09T08:33:58.925Z,18816
2019-05-09T08:35:10.756Z,18784
2019-05-09T08:36:24.675Z,41184
2019-05-09T08:37:38.697Z,50144
2019-05-09T08:38:50.279Z,58848
2019-05-09T08:40:02.651Z,60992
2019-05-09T08:41:14.078Z,32160
2019-05-09T08:42:29.322Z,43872
2019-05-09T08:43:40.134Z,24704
2019-05-09T08:44:50.736Z,38784
2019-05-09T08:46:02.476Z,44608
2019-05-09T08:47:14.989Z,46688
2019-05-09T08:48:28.262Z,23744
2019-05-09T08:49:39.848Z,20384
2019-05-09T08:50:52.864Z,20544
2019-05-09T08:52:22.504Z,72672
2019-05-09T08:53:34.735Z,31616
2019-05-09T08:54:48.293Z,40640
2019-05-09T08:56:00.491Z,26976
2019-05-09T08:57:12.564Z,54752
2019-05-09T08:58:24.650Z,47808
2019-05-09T08:59:35.583Z,36672
2019-05-09T09:00:48.367Z,25184
2019-05-09T09:02:28.028Z,12536
2019-05-09T09:03:40.213Z,11672
2019-05-09T09:04:51.378Z,11916
2019-05-09T09:06:02.688Z,12180
2019-05-09T09:07:15.588Z,12384
2019-05-09T09:08:28.414Z,12804
2019-05-09T09:09:40.355Z,13696
2019-05-09T09:10:51.342Z,13888
2019-05-09T09:12:03.249Z,14208
2019-05-09T09:13:33.166Z,14688
2019-05-09T09:14:47.771Z,14944
2019-05-09T09:16:28.075Z,17920
2019-05-09T09:17:40.884Z,16832
2019-05-09T09:18:53.010Z,17504
2019-05-09T09:20:07.653Z,17984
2019-05-09T09:21:20.670Z,20448
2019-05-09T09:22:33.206Z,17888
2019-05-09T09:23:57.954Z,22432
2019-05-09T09:25:10.183Z,20960
2019-05-09T09:26:20.906Z,17344
2019-05-09T09:27:32.187Z,74720
2019-05-09T09:28:42.969Z,57088
2019-05-09T09:29:55.295Z,15648
2019-05-09T09:31:10.689Z,48288
2019-05-09T09:32:23.656Z,36512
2019-05-09T09:33:37.605Z,67360
2019-05-09T09:34:50.843Z,72096
2019-05-09T09:36:02.858Z,71776
2019-05-09T09:37:18.443Z,66432
2019-05-09T09:38:30.591Z,67328
2019-05-09T09:39:51.341Z,70304
2019-05-09T09:41:02.985Z,70336
2019-05-09T09:42:19.782Z,70624
2019-05-09T09:43:32.492Z,20672
2019-05-09T09:47:33.451Z,71168
2019-05-09T09:48:50.494Z,70208
2019-05-09T09:50:04.896Z,73728
2019-05-09T09:51:18.540Z,69920
2019-05-09T09:52:34.330Z,67200
2019-05-09T09:53:48.567Z,70624
2019-05-09T09:55:00.736Z,71712
2019-05-09T09:56:13.635Z,39104
2019-05-09T09:57:28.820Z,76224
2019-05-09T09:58:40.461Z,73344
2019-05-09T09:59:53.449Z,73824
2019-05-09T10:01:11.288Z,81760
2019-05-09T10:02:21.429Z,83872
2019-05-09T10:03:31.587Z,81024
2019-05-09T10:04:42.451Z,11184
2019-05-09T10:05:53.463Z,14468
2019-05-09T10:07:08.574Z,10436
2019-05-09T10:08:23.102Z,21248
2019-05-09T10:09:32.985Z,90624
2019-05-09T10:10:43.112Z,28896
2019-05-09T10:12:00.643Z,84704
2019-05-09T10:13:15.187Z,7776
2019-05-09T10:14:28.308Z,12848
2019-05-09T10:15:40.822Z,82848
2019-05-09T10:16:52.697Z,84800
2019-05-09T10:18:03.145Z,88992
2019-05-09T10:19:15.664Z,87584
2019-05-09T10:20:28.963Z,87936
2019-05-09T10:21:40.653Z,92800
2019-05-09T10:23:21.553Z,91296
2019-05-09T10:24:32.973Z,95008
2019-05-09T10:25:45.445Z,94272
2019-05-09T10:26:55.572Z,91904
2019-05-09T10:28:05.740Z,90144
2019-05-09T10:29:17.763Z,88032
2019-05-09T10:30:30.949Z,92352
2019-05-09T10:33:01.058Z,83296
2019-05-09T10:34:17.709Z,85536
2019-05-09T10:35:30.391Z,88000
2019-05-09T10:36:40.956Z,87008
2019-05-09T10:37:54.094Z,87264
2019-05-09T10:39:08.333Z,87200
2019-05-09T10:40:18.575Z,87168
2019-05-09T10:41:28.718Z,88448
2019-05-09T10:42:40.472Z,86784
2019-05-09T10:43:53.290Z,86176
2019-05-09T10:45:07.415Z,87680
2019-05-09T10:46:21.964Z,86912
2019-05-09T10:47:34.523Z,84928
2019-05-09T10:48:48.419Z,85760
2019-05-09T10:56:38.057Z,88992
